sensor_id;sensor_type;location;lat;lon;timestamp;temperature;humidity
7155;DHT22;3619;53.784;10.440;2022-09-09T00:02:08;14.70;99.90
7155;DHT22;3619;53.784;10.440;2022-09-09T00:04:39;14.60;99.90
7155;DHT22;3619;53.784;10.440;2022-09-09T00:07:15;14.60;99.90
7155;DHT22;3619;53.784;10.440;2022-09-09T00:09:48;14.60;99.90
7155;DHT22;3619;53.784;10.440;2022-09-09T00:12:22;14.70;99.90
7155;DHT22;3619;53.784;10.440;2022-09-09T00:14:56;14.70;99.90
7155;DHT22;3619;53.784;10.440;2022-09-09T00:17:34;14.70;99.90
7155;DHT22;3619;53.784;10.440;2022-09-09T00:20:14;14.70;99.90
7155;DHT22;3619;53.784;10.440;2022-09-09T00:22:52;14.70;99.90
7155;DHT22;3619;53.784;10.440;2022-09-09T00:25:25;14.60;99.90
7155;DHT22;3619;53.784;10.440;2022-09-09T00:27:56;14.70;99.90
7155;DHT22;3619;53.784;10.440;2022-09-09T00:30:24;14.60;99.90
7155;DHT22;3619;53.784;10.440;2022-09-09T00:32:54;14.60;99.90
7155;DHT22;3619;53.784;10.440;2022-09-09T00:35:26;14.60;99.90
7155;DHT22;3619;53.784;10.440;2022-09-09T00:38:00;14.60;99.90
7155;DHT22;3619;53.784;10.440;2022-09-09T00:40:33;14.70;99.90
7155;DHT22;3619;53.784;10.440;2022-09-09T00:43:24;14.70;99.90
7155;DHT22;3619;53.784;10.440;2022-09-09T00:46:32;14.70;99.90
7155;DHT22;3619;53.784;10.440;2022-09-09T00:52:56;14.60;99.90
7155;DHT22;3619;53.784;10.440;2022-09-09T00:55:38;14.70;99.90
7155;DHT22;3619;53.784;10.440;2022-09-09T00:58:25;14.60;99.90
7155;DHT22;3619;53.784;10.440;2022-09-09T01:01:26;14.60;99.90
7155;DHT22;3619;53.784;10.440;2022-09-09T01:04:19;14.60;99.90
7155;DHT22;3619;53.784;10.440;2022-09-09T01:07:09;14.60;99.90
7155;DHT22;3619;53.784;10.440;2022-09-09T01:09:44;14.60;99.90
7155;DHT22;3619;53.784;10.440;2022-09-09T01:12:16;14.60;99.90
7155;DHT22;3619;53.784;10.440;2022-09-09T01:14:51;14.60;99.90
7155;DHT22;3619;53.784;10.440;2022-09-09T01:17:25;14.60;99.90
7155;DHT22;3619;53.784;10.440;2022-09-09T01:20:05;14.60;99.90
7155;DHT22;3619;53.784;10.440;2022-09-09T01:22:36;14.50;99.90
7155;DHT22;3619;53.784;10.440;2022-09-09T01:28:10;14.60;99.90
7155;DHT22;3619;53.784;10.440;2022-09-09T01:30:41;14.60;99.90
7155;DHT22;3619;53.784;10.440;2022-09-09T01:33:15;14.60;99.90
7155;DHT22;3619;53.784;10.440;2022-09-09T01:35:48;14.60;99.90
7155;DHT22;3619;53.784;10.440;2022-09-09T01:38:19;14.70;99.90
7155;DHT22;3619;53.784;10.440;2022-09-09T01:40:46;14.70;99.90
7155;DHT22;3619;53.784;10.440;2022-09-09T01:43:14;14.70;99.90
7155;DHT22;3619;53.784;10.440;2022-09-09T01:46:24;14.70;99.90
7155;DHT22;3619;53.784;10.440;2022-09-09T01:49:38;14.70;99.90
7155;DHT22;3619;53.784;10.440;2022-09-09T01:52:48;14.70;99.90
7155;DHT22;3619;53.784;10.440;2022-09-09T01:55:31;14.80;99.90
7155;DHT22;3619;53.784;10.440;2022-09-09T02:08:05;14.70;99.90
7155;DHT22;3619;53.784;10.440;2022-09-09T02:10:56;14.70;99.90
7155;DHT22;3619;53.784;10.440;2022-09-09T02:14:10;14.70;99.90
7155;DHT22;3619;53.784;10.440;2022-09-09T02:17:09;14.70;99.90
7155;DHT22;3619;53.784;10.440;2022-09-09T02:20:03;14.70;99.90
7155;DHT22;3619;53.784;10.440;2022-09-09T02:22:31;14.60;99.90
7155;DHT22;3619;53.784;10.440;2022-09-09T02:25:04;14.70;99.90
7155;DHT22;3619;53.784;10.440;2022-09-09T02:27:37;14.60;99.90
7155;DHT22;3619;53.784;10.440;2022-09-09T02:30:07;14.60;99.90
7155;DHT22;3619;53.784;10.440;2022-09-09T02:32:36;14.60;99.90
7155;DHT22;3619;53.784;10.440;2022-09-09T02:35:09;14.60;99.90
7155;DHT22;3619;53.784;10.440;2022-09-09T02:37:38;14.60;99.90
7155;DHT22;3619;53.784;10.440;2022-09-09T02:40:11;14.60;99.90
7155;DHT22;3619;53.784;10.440;2022-09-09T02:42:39;14.60;99.90
7155;DHT22;3619;53.784;10.440;2022-09-09T02:45:14;14.60;99.90
7155;DHT22;3619;53.784;10.440;2022-09-09T02:47:58;14.60;99.90
7155;DHT22;3619;53.784;10.440;2022-09-09T02:50:57;14.50;99.90
7155;DHT22;3619;53.784;10.440;2022-09-09T02:53:41;14.50;99.90
7155;DHT22;3619;53.784;10.440;2022-09-09T02:57:04;14.60;99.90
7155;DHT22;3619;53.784;10.440;2022-09-09T02:59:39;14.60;99.90
7155;DHT22;3619;53.784;10.440;2022-09-09T03:02:23;14.60;99.90
7155;DHT22;3619;53.784;10.440;2022-09-09T03:05:24;14.50;99.90
7155;DHT22;3619;53.784;10.440;2022-09-09T03:07:51;14.50;99.90
7155;DHT22;3619;53.784;10.440;2022-09-09T03:10:22;14.50;99.90
7155;DHT22;3619;53.784;10.440;2022-09-09T03:12:52;14.50;99.90
7155;DHT22;3619;53.784;10.440;2022-09-09T03:15:21;14.50;99.90
7155;DHT22;3619;53.784;10.440;2022-09-09T03:21:09;14.50;99.90
7155;DHT22;3619;53.784;10.440;2022-09-09T03:23:39;14.50;99.90
7155;DHT22;3619;53.784;10.440;2022-09-09T03:26:10;14.50;99.90
7155;DHT22;3619;53.784;10.440;2022-09-09T03:29:15;14.50;99.90
7155;DHT22;3619;53.784;10.440;2022-09-09T03:31:53;14.50;99.90
7155;DHT22;3619;53.784;10.440;2022-09-09T03:34:30;14.50;99.90
7155;DHT22;3619;53.784;10.440;2022-09-09T03:36:57;14.50;99.90
7155;DHT22;3619;53.784;10.440;2022-09-09T03:39:24;14.50;99.90
7155;DHT22;3619;53.784;10.440;2022-09-09T03:41:52;14.50;99.90
7155;DHT22;3619;53.784;10.440;2022-09-09T03:44:27;14.50;99.90
7155;DHT22;3619;53.784;10.440;2022-09-09T03:47:07;14.60;99.90
7155;DHT22;3619;53.784;10.440;2022-09-09T03:50:03;14.50;99.90
7155;DHT22;3619;53.784;10.440;2022-09-09T03:53:07;14.50;99.90
7155;DHT22;3619;53.784;10.440;2022-09-09T03:55:43;14.50;99.90
7155;DHT22;3619;53.784;10.440;2022-09-09T03:58:13;14.50;99.90
7155;DHT22;3619;53.784;10.440;2022-09-09T04:00:42;14.50;99.90
7155;DHT22;3619;53.784;10.440;2022-09-09T04:03:10;14.50;99.90
7155;DHT22;3619;53.784;10.440;2022-09-09T04:05:39;14.50;99.90
7155;DHT22;3619;53.784;10.440;2022-09-09T04:08:08;14.50;99.90
7155;DHT22;3619;53.784;10.440;2022-09-09T04:10:39;14.50;99.90
7155;DHT22;3619;53.784;10.440;2022-09-09T04:13:12;14.50;99.90
7155;DHT22;3619;53.784;10.440;2022-09-09T04:15:50;14.40;99.90
7155;DHT22;3619;53.784;10.440;2022-09-09T04:18:18;14.50;99.90
7155;DHT22;3619;53.784;10.440;2022-09-09T04:20:46;14.40;99.90
7155;DHT22;3619;53.784;10.440;2022-09-09T04:23:14;14.50;99.90
7155;DHT22;3619;53.784;10.440;2022-09-09T04:25:44;14.50;99.90
7155;DHT22;3619;53.784;10.440;2022-09-09T04:28:11;14.40;99.90
7155;DHT22;3619;53.784;10.440;2022-09-09T04:30:38;14.50;99.90
7155;DHT22;3619;53.784;10.440;2022-09-09T04:33:07;14.40;99.90
7155;DHT22;3619;53.784;10.440;2022-09-09T04:35:35;14.40;99.90
7155;DHT22;3619;53.784;10.440;2022-09-09T04:38:04;14.40;99.90
7155;DHT22;3619;53.784;10.440;2022-09-09T04:40:33;14.40;99.90
7155;DHT22;3619;53.784;10.440;2022-09-09T04:43:00;14.40;99.90
7155;DHT22;3619;53.784;10.440;2022-09-09T04:48:32;14.40;99.90
7155;DHT22;3619;53.784;10.440;2022-09-09T04:54:48;14.40;99.90
7155;DHT22;3619;53.784;10.440;2022-09-09T04:57:18;14.40;99.90
7155;DHT22;3619;53.784;10.440;2022-09-09T04:59:50;14.30;99.90
7155;DHT22;3619;53.784;10.440;2022-09-09T05:05:57;14.30;99.90
7155;DHT22;3619;53.784;10.440;2022-09-09T05:09:04;14.30;99.90
7155;DHT22;3619;53.784;10.440;2022-09-09T05:11:47;14.20;99.90
7155;DHT22;3619;53.784;10.440;2022-09-09T05:14:14;14.20;99.90
7155;DHT22;3619;53.784;10.440;2022-09-09T05:16:42;14.20;99.90
7155;DHT22;3619;53.784;10.440;2022-09-09T05:19:10;14.20;99.90
7155;DHT22;3619;53.784;10.440;2022-09-09T05:21:42;14.20;99.90
7155;DHT22;3619;53.784;10.440;2022-09-09T05:24:09;14.20;99.90
7155;DHT22;3619;53.784;10.440;2022-09-09T05:26:37;14.20;99.90
7155;DHT22;3619;53.784;10.440;2022-09-09T05:29:04;14.20;99.90
7155;DHT22;3619;53.784;10.440;2022-09-09T05:31:31;14.20;99.90
7155;DHT22;3619;53.784;10.440;2022-09-09T05:34:00;14.20;99.90
7155;DHT22;3619;53.784;10.440;2022-09-09T05:36:27;14.20;99.90
7155;DHT22;3619;53.784;10.440;2022-09-09T05:38:55;14.30;99.90
7155;DHT22;3619;53.784;10.440;2022-09-09T05:41:23;14.30;99.90
7155;DHT22;3619;53.784;10.440;2022-09-09T05:43:49;14.30;99.90
7155;DHT22;3619;53.784;10.440;2022-09-09T05:46:25;14.40;99.90
7155;DHT22;3619;53.784;10.440;2022-09-09T05:49:17;14.30;99.90
7155;DHT22;3619;53.784;10.440;2022-09-09T05:52:08;14.40;99.90
7155;DHT22;3619;53.784;10.440;2022-09-09T05:54:44;14.40;99.90
7155;DHT22;3619;53.784;10.440;2022-09-09T05:57:14;14.40;99.90
7155;DHT22;3619;53.784;10.440;2022-09-09T05:59:58;14.40;99.90
7155;DHT22;3619;53.784;10.440;2022-09-09T06:06:14;14.40;99.90
7155;DHT22;3619;53.784;10.440;2022-09-09T06:08:56;14.40;99.90
7155;DHT22;3619;53.784;10.440;2022-09-09T06:11:29;14.40;99.90
7155;DHT22;3619;53.784;10.440;2022-09-09T06:13:57;14.50;99.90
7155;DHT22;3619;53.784;10.440;2022-09-09T06:16:31;14.50;99.90
7155;DHT22;3619;53.784;10.440;2022-09-09T06:19:03;14.60;99.90
7155;DHT22;3619;53.784;10.440;2022-09-09T06:21:31;14.60;99.90
7155;DHT22;3619;53.784;10.440;2022-09-09T06:23:59;14.60;99.90
7155;DHT22;3619;53.784;10.440;2022-09-09T06:26:29;14.60;99.90
7155;DHT22;3619;53.784;10.440;2022-09-09T06:31:47;14.70;99.90
7155;DHT22;3619;53.784;10.440;2022-09-09T06:34:16;14.80;99.90
7155;DHT22;3619;53.784;10.440;2022-09-09T06:36:46;14.80;99.90
7155;DHT22;3619;53.784;10.440;2022-09-09T06:39:13;14.80;99.90
7155;DHT22;3619;53.784;10.440;2022-09-09T06:41:42;14.80;99.90
7155;DHT22;3619;53.784;10.440;2022-09-09T06:44:18;14.90;99.90
7155;DHT22;3619;53.784;10.440;2022-09-09T06:46:47;14.90;99.90
7155;DHT22;3619;53.784;10.440;2022-09-09T06:50:05;15.00;99.90
7155;DHT22;3619;53.784;10.440;2022-09-09T06:53:10;15.10;99.90
7155;DHT22;3619;53.784;10.440;2022-09-09T06:55:45;15.30;99.90
7155;DHT22;3619;53.784;10.440;2022-09-09T06:58:28;15.30;99.90
7155;DHT22;3619;53.784;10.440;2022-09-09T07:01:03;15.30;99.90
7155;DHT22;3619;53.784;10.440;2022-09-09T07:03:41;15.30;99.90
7155;DHT22;3619;53.784;10.440;2022-09-09T07:06:14;15.20;99.90
7155;DHT22;3619;53.784;10.440;2022-09-09T07:08:55;15.20;99.90
7155;DHT22;3619;53.784;10.440;2022-09-09T07:11:43;15.30;99.90
7155;DHT22;3619;53.784;10.440;2022-09-09T07:14:43;15.20;99.90
7155;DHT22;3619;53.784;10.440;2022-09-09T07:20:52;15.20;99.90
7155;DHT22;3619;53.784;10.440;2022-09-09T07:23:28;15.10;99.90
7155;DHT22;3619;53.784;10.440;2022-09-09T07:32:41;15.30;99.90
7155;DHT22;3619;53.784;10.440;2022-09-09T07:41:38;15.90;99.90
7155;DHT22;3619;53.784;10.440;2022-09-09T07:56:36;16.10;99.90
7155;DHT22;3619;53.784;10.440;2022-09-09T07:59:07;16.20;99.90
7155;DHT22;3619;53.784;10.440;2022-09-09T08:01:46;16.40;99.90
7155;DHT22;3619;53.784;10.440;2022-09-09T08:04:31;16.80;99.90
7155;DHT22;3619;53.784;10.440;2022-09-09T08:07:01;17.00;99.90
7155;DHT22;3619;53.784;10.440;2022-09-09T08:09:31;17.00;99.90
7155;DHT22;3619;53.784;10.440;2022-09-09T08:12:01;17.00;99.90
7155;DHT22;3619;53.784;10.440;2022-09-09T08:14:28;17.00;99.90
7155;DHT22;3619;53.784;10.440;2022-09-09T08:16:57;17.00;99.90
7155;DHT22;3619;53.784;10.440;2022-09-09T08:19:25;17.00;99.90
7155;DHT22;3619;53.784;10.440;2022-09-09T08:22:32;17.10;99.90
7155;DHT22;3619;53.784;10.440;2022-09-09T08:28:08;17.10;99.90
7155;DHT22;3619;53.784;10.440;2022-09-09T08:28:18;17.20;99.90
7155;DHT22;3619;53.784;10.440;2022-09-09T08:31:26;17.30;99.90
7155;DHT22;3619;53.784;10.440;2022-09-09T08:33:57;17.30;99.90
7155;DHT22;3619;53.784;10.440;2022-09-09T08:36:28;17.40;99.90
7155;DHT22;3619;53.784;10.440;2022-09-09T08:38:56;17.50;99.90
7155;DHT22;3619;53.784;10.440;2022-09-09T08:45:29;17.90;99.90
7155;DHT22;3619;53.784;10.440;2022-09-09T08:51:40;18.00;99.90
7155;DHT22;3619;53.784;10.440;2022-09-09T09:04:29;18.50;99.90
7155;DHT22;3619;53.784;10.440;2022-09-09T09:10:31;18.50;99.90
7155;DHT22;3619;53.784;10.440;2022-09-09T09:13:00;18.60;99.90
7155;DHT22;3619;53.784;10.440;2022-09-09T09:15:30;18.40;99.90
7155;DHT22;3619;53.784;10.440;2022-09-09T09:18:01;18.50;99.90
7155;DHT22;3619;53.784;10.440;2022-09-09T09:20:50;18.60;99.90
7155;DHT22;3619;53.784;10.440;2022-09-09T09:23:53;18.70;99.90
7155;DHT22;3619;53.784;10.440;2022-09-09T09:26:56;18.70;99.90
7155;DHT22;3619;53.784;10.440;2022-09-09T09:29:15;18.60;99.90
7155;DHT22;3619;53.784;10.440;2022-09-09T09:31:46;18.60;99.90
7155;DHT22;3619;53.784;10.440;2022-09-09T09:34:16;18.50;99.90
7155;DHT22;3619;53.784;10.440;2022-09-09T09:36:45;18.50;99.90
7155;DHT22;3619;53.784;10.440;2022-09-09T09:39:24;18.60;99.90
7155;DHT22;3619;53.784;10.440;2022-09-09T09:41:53;19.00;99.90
7155;DHT22;3619;53.784;10.440;2022-09-09T09:44:27;19.30;99.90
7155;DHT22;3619;53.784;10.440;2022-09-09T09:47:06;19.60;99.90
7155;DHT22;3619;53.784;10.440;2022-09-09T09:49:39;19.60;99.90
7155;DHT22;3619;53.784;10.440;2022-09-09T09:52:59;19.70;99.90
7155;DHT22;3619;53.784;10.440;2022-09-09T09:55:31;19.80;99.90
7155;DHT22;3619;53.784;10.440;2022-09-09T09:58:21;20.20;99.90
7155;DHT22;3619;53.784;10.440;2022-09-09T10:00:59;20.40;99.90
7155;DHT22;3619;53.784;10.440;2022-09-09T10:03:52;20.40;99.90
7155;DHT22;3619;53.784;10.440;2022-09-09T10:06:29;20.20;99.90
7155;DHT22;3619;53.784;10.440;2022-09-09T10:09:02;20.00;99.90
7155;DHT22;3619;53.784;10.440;2022-09-09T10:11:46;20.00;99.90
7155;DHT22;3619;53.784;10.440;2022-09-09T10:14:20;20.10;99.90
7155;DHT22;3619;53.784;10.440;2022-09-09T10:16:58;20.30;99.90
7155;DHT22;3619;53.784;10.440;2022-09-09T10:19:34;20.50;99.90
7155;DHT22;3619;53.784;10.440;2022-09-09T10:22:24;20.60;99.90
7155;DHT22;3619;53.784;10.440;2022-09-09T10:25:07;20.50;99.90
7155;DHT22;3619;53.784;10.440;2022-09-09T10:27:43;20.20;99.90
7155;DHT22;3619;53.784;10.440;2022-09-09T10:30:18;20.00;99.90
7155;DHT22;3619;53.784;10.440;2022-09-09T10:32:48;19.70;99.90
7155;DHT22;3619;53.784;10.440;2022-09-09T10:35:29;19.50;99.90
7155;DHT22;3619;53.784;10.440;2022-09-09T10:38:33;19.60;99.90
7155;DHT22;3619;53.784;10.440;2022-09-09T10:41:15;19.90;99.90
7155;DHT22;3619;53.784;10.440;2022-09-09T10:44:01;20.20;99.90
7155;DHT22;3619;53.784;10.440;2022-09-09T10:47:07;20.60;99.90
7155;DHT22;3619;53.784;10.440;2022-09-09T10:50:02;20.70;99.90
7155;DHT22;3619;53.784;10.440;2022-09-09T10:52:56;20.70;99.90
7155;DHT22;3619;53.784;10.440;2022-09-09T10:55:33;20.80;99.90
7155;DHT22;3619;53.784;10.440;2022-09-09T10:58:03;20.90;99.90
7155;DHT22;3619;53.784;10.440;2022-09-09T11:00:38;21.20;99.90
7155;DHT22;3619;53.784;10.440;2022-09-09T11:03:14;21.30;99.90
7155;DHT22;3619;53.784;10.440;2022-09-09T11:05:44;21.60;99.90
7155;DHT22;3619;53.784;10.440;2022-09-09T11:08:17;21.80;99.90
7155;DHT22;3619;53.784;10.440;2022-09-09T11:10:48;21.70;99.90
7155;DHT22;3619;53.784;10.440;2022-09-09T11:13:20;21.70;99.90
7155;DHT22;3619;53.784;10.440;2022-09-09T11:15:52;21.70;99.90
7155;DHT22;3619;53.784;10.440;2022-09-09T11:18:22;21.60;99.90
7155;DHT22;3619;53.784;10.440;2022-09-09T11:20:53;21.70;99.90
7155;DHT22;3619;53.784;10.440;2022-09-09T11:23:25;21.60;99.90
7155;DHT22;3619;53.784;10.440;2022-09-09T11:25:56;21.60;99.90
7155;DHT22;3619;53.784;10.440;2022-09-09T11:28:32;21.50;99.90
7155;DHT22;3619;53.784;10.440;2022-09-09T11:31:15;21.40;99.90
7155;DHT22;3619;53.784;10.440;2022-09-09T11:33:58;21.30;99.90
7155;DHT22;3619;53.784;10.440;2022-09-09T11:36:49;21.30;99.90
7155;DHT22;3619;53.784;10.440;2022-09-09T11:39:37;21.60;99.90
7155;DHT22;3619;53.784;10.440;2022-09-09T11:42:07;21.70;99.90
7155;DHT22;3619;53.784;10.440;2022-09-09T11:44:34;21.90;99.90
7155;DHT22;3619;53.784;10.440;2022-09-09T11:49:50;22.00;99.90
7155;DHT22;3619;53.784;10.440;2022-09-09T11:52:25;22.00;99.90
7155;DHT22;3619;53.784;10.440;2022-09-09T11:55:25;22.00;99.90
7155;DHT22;3619;53.784;10.440;2022-09-09T11:57:58;21.80;99.90
7155;DHT22;3619;53.784;10.440;2022-09-09T12:00:37;21.90;99.90
7155;DHT22;3619;53.784;10.440;2022-09-09T12:03:04;22.00;99.90
7155;DHT22;3619;53.784;10.440;2022-09-09T12:05:38;22.30;99.90
7155;DHT22;3619;53.784;10.440;2022-09-09T12:08:10;22.30;99.90
7155;DHT22;3619;53.784;10.440;2022-09-09T12:10:40;22.50;99.90
7155;DHT22;3619;53.784;10.440;2022-09-09T12:13:09;22.40;99.90
7155;DHT22;3619;53.784;10.440;2022-09-09T12:15:47;22.20;99.90
7155;DHT22;3619;53.784;10.440;2022-09-09T12:18:16;22.00;99.90
7155;DHT22;3619;53.784;10.440;2022-09-09T12:21:06;21.80;99.90
7155;DHT22;3619;53.784;10.440;2022-09-09T12:23:43;21.70;99.90
7155;DHT22;3619;53.784;10.440;2022-09-09T12:26:28;21.80;99.90
7155;DHT22;3619;53.784;10.440;2022-09-09T12:29:06;22.10;99.90
7155;DHT22;3619;53.784;10.440;2022-09-09T12:31:40;22.30;99.90
7155;DHT22;3619;53.784;10.440;2022-09-09T12:34:12;22.50;99.90
7155;DHT22;3619;53.784;10.440;2022-09-09T12:36:43;22.50;99.90
7155;DHT22;3619;53.784;10.440;2022-09-09T12:39:17;22.10;99.90
7155;DHT22;3619;53.784;10.440;2022-09-09T12:41:51;22.00;99.90
7155;DHT22;3619;53.784;10.440;2022-09-09T12:44:22;21.90;99.90
7155;DHT22;3619;53.784;10.440;2022-09-09T12:46:51;21.90;99.90
7155;DHT22;3619;53.784;10.440;2022-09-09T12:49:28;21.80;99.90
7155;DHT22;3619;53.784;10.440;2022-09-09T12:51:58;21.80;99.90
7155;DHT22;3619;53.784;10.440;2022-09-09T12:54:25;21.60;99.90
7155;DHT22;3619;53.784;10.440;2022-09-09T12:56:53;21.60;99.90
7155;DHT22;3619;53.784;10.440;2022-09-09T12:59:38;21.50;99.90
7155;DHT22;3619;53.784;10.440;2022-09-09T13:02:16;21.50;99.90
7155;DHT22;3619;53.784;10.440;2022-09-09T13:04:44;21.30;99.90
7155;DHT22;3619;53.784;10.440;2022-09-09T13:07:16;21.10;99.90
7155;DHT22;3619;53.784;10.440;2022-09-09T13:09:46;20.90;99.90
7155;DHT22;3619;53.784;10.440;2022-09-09T13:12:16;20.60;99.90
7155;DHT22;3619;53.784;10.440;2022-09-09T13:14:47;20.50;99.90
7155;DHT22;3619;53.784;10.440;2022-09-09T13:17:23;20.30;99.90
7155;DHT22;3619;53.784;10.440;2022-09-09T13:19:50;20.30;99.90
7155;DHT22;3619;53.784;10.440;2022-09-09T13:22:26;20.20;99.90
7155;DHT22;3619;53.784;10.440;2022-09-09T13:25:18;20.30;99.90
7155;DHT22;3619;53.784;10.440;2022-09-09T13:27:53;20.30;99.90
7155;DHT22;3619;53.784;10.440;2022-09-09T13:30:23;20.20;99.90
7155;DHT22;3619;53.784;10.440;2022-09-09T13:33:00;20.10;99.90
7155;DHT22;3619;53.784;10.440;2022-09-09T13:35:34;19.80;99.90
7155;DHT22;3619;53.784;10.440;2022-09-09T13:38:08;19.70;99.90
7155;DHT22;3619;53.784;10.440;2022-09-09T13:40:38;19.60;99.90
7155;DHT22;3619;53.784;10.440;2022-09-09T13:43:16;19.50;99.90
7155;DHT22;3619;53.784;10.440;2022-09-09T13:46:05;19.40;99.90
7155;DHT22;3619;53.784;10.440;2022-09-09T13:49:02;19.40;99.90
7155;DHT22;3619;53.784;10.440;2022-09-09T13:51:51;19.40;99.90
7155;DHT22;3619;53.784;10.440;2022-09-09T13:54:21;19.40;99.90
7155;DHT22;3619;53.784;10.440;2022-09-09T13:56:48;19.30;99.90
7155;DHT22;3619;53.784;10.440;2022-09-09T13:59:25;19.30;99.90
7155;DHT22;3619;53.784;10.440;2022-09-09T14:02:13;19.30;99.90
7155;DHT22;3619;53.784;10.440;2022-09-09T14:04:50;19.30;99.90
7155;DHT22;3619;53.784;10.440;2022-09-09T14:07:21;19.30;99.90
7155;DHT22;3619;53.784;10.440;2022-09-09T14:09:50;19.30;99.90
7155;DHT22;3619;53.784;10.440;2022-09-09T14:12:18;19.30;99.90
7155;DHT22;3619;53.784;10.440;2022-09-09T14:14:52;19.30;99.90
7155;DHT22;3619;53.784;10.440;2022-09-09T14:17:18;19.40;99.90
7155;DHT22;3619;53.784;10.440;2022-09-09T14:19:45;19.40;99.90
7155;DHT22;3619;53.784;10.440;2022-09-09T14:22:16;19.50;99.90
7155;DHT22;3619;53.784;10.440;2022-09-09T14:24:43;19.60;99.90
7155;DHT22;3619;53.784;10.440;2022-09-09T14:27:14;19.70;99.90
7155;DHT22;3619;53.784;10.440;2022-09-09T14:29:41;19.70;99.90
7155;DHT22;3619;53.784;10.440;2022-09-09T14:32:31;19.70;99.90
7155;DHT22;3619;53.784;10.440;2022-09-09T14:34:59;19.60;99.90
7155;DHT22;3619;53.784;10.440;2022-09-09T14:37:26;19.60;99.90
7155;DHT22;3619;53.784;10.440;2022-09-09T14:40:02;19.50;99.90
7155;DHT22;3619;53.784;10.440;2022-09-09T14:42:30;19.50;99.90
7155;DHT22;3619;53.784;10.440;2022-09-09T14:44:57;19.40;99.90
7155;DHT22;3619;53.784;10.440;2022-09-09T14:47:24;19.50;99.90
7155;DHT22;3619;53.784;10.440;2022-09-09T14:49:54;19.50;99.90
7155;DHT22;3619;53.784;10.440;2022-09-09T14:52:24;19.40;99.90
7155;DHT22;3619;53.784;10.440;2022-09-09T14:54:53;19.40;99.90
7155;DHT22;3619;53.784;10.440;2022-09-09T14:57:22;19.20;99.90
7155;DHT22;3619;53.784;10.440;2022-09-09T15:00:10;19.10;99.90
7155;DHT22;3619;53.784;10.440;2022-09-09T15:02:46;19.10;99.90
7155;DHT22;3619;53.784;10.440;2022-09-09T15:05:32;19.10;99.90
7155;DHT22;3619;53.784;10.440;2022-09-09T15:08:19;19.10;99.90
7155;DHT22;3619;53.784;10.440;2022-09-09T15:10:59;19.00;99.90
7155;DHT22;3619;53.784;10.440;2022-09-09T15:13:28;19.00;99.90
7155;DHT22;3619;53.784;10.440;2022-09-09T15:15:56;19.00;99.90
7155;DHT22;3619;53.784;10.440;2022-09-09T15:18:29;19.00;99.90
7155;DHT22;3619;53.784;10.440;2022-09-09T15:20:56;18.90;99.90
7155;DHT22;3619;53.784;10.440;2022-09-09T15:23:27;18.90;99.90
7155;DHT22;3619;53.784;10.440;2022-09-09T15:25:58;18.80;99.90
7155;DHT22;3619;53.784;10.440;2022-09-09T15:28:26;18.70;99.90
7155;DHT22;3619;53.784;10.440;2022-09-09T15:30:53;18.70;99.90
7155;DHT22;3619;53.784;10.440;2022-09-09T15:33:23;18.70;99.90
7155;DHT22;3619;53.784;10.440;2022-09-09T15:35:54;18.70;99.90
7155;DHT22;3619;53.784;10.440;2022-09-09T15:38:41;18.70;99.90
7155;DHT22;3619;53.784;10.440;2022-09-09T15:41:34;18.60;99.90
7155;DHT22;3619;53.784;10.440;2022-09-09T15:44:09;18.60;99.90
7155;DHT22;3619;53.784;10.440;2022-09-09T15:46:38;18.50;99.90
7155;DHT22;3619;53.784;10.440;2022-09-09T15:49:13;18.40;99.90
7155;DHT22;3619;53.784;10.440;2022-09-09T15:51:55;18.40;99.90
7155;DHT22;3619;53.784;10.440;2022-09-09T15:54:23;18.40;99.90
7155;DHT22;3619;53.784;10.440;2022-09-09T15:56:52;18.30;99.90
7155;DHT22;3619;53.784;10.440;2022-09-09T15:59:20;18.30;99.90
7155;DHT22;3619;53.784;10.440;2022-09-09T16:01:48;18.20;99.90
7155;DHT22;3619;53.784;10.440;2022-09-09T16:04:19;18.20;99.90
7155;DHT22;3619;53.784;10.440;2022-09-09T16:06:49;18.20;99.90
7155;DHT22;3619;53.784;10.440;2022-09-09T16:09:17;18.20;99.90
7155;DHT22;3619;53.784;10.440;2022-09-09T16:11:44;18.20;99.90
7155;DHT22;3619;53.784;10.440;2022-09-09T16:14:12;18.20;99.90
7155;DHT22;3619;53.784;10.440;2022-09-09T16:16:39;18.20;99.90
7155;DHT22;3619;53.784;10.440;2022-09-09T16:19:09;18.20;99.90
7155;DHT22;3619;53.784;10.440;2022-09-09T16:21:39;18.20;99.90
7155;DHT22;3619;53.784;10.440;2022-09-09T16:24:08;18.20;99.90
7155;DHT22;3619;53.784;10.440;2022-09-09T16:26:41;18.20;99.90
7155;DHT22;3619;53.784;10.440;2022-09-09T16:29:10;18.20;99.90
7155;DHT22;3619;53.784;10.440;2022-09-09T16:31:38;18.10;99.90
7155;DHT22;3619;53.784;10.440;2022-09-09T16:34:05;18.20;99.90
7155;DHT22;3619;53.784;10.440;2022-09-09T16:36:35;18.20;99.90
7155;DHT22;3619;53.784;10.440;2022-09-09T16:39:08;18.30;99.90
7155;DHT22;3619;53.784;10.440;2022-09-09T16:41:36;18.30;99.90
7155;DHT22;3619;53.784;10.440;2022-09-09T16:44:05;18.40;99.90
7155;DHT22;3619;53.784;10.440;2022-09-09T16:46:34;18.40;99.90
7155;DHT22;3619;53.784;10.440;2022-09-09T16:49:19;18.50;99.90
7155;DHT22;3619;53.784;10.440;2022-09-09T16:51:58;18.50;99.90
7155;DHT22;3619;53.784;10.440;2022-09-09T16:54:28;18.60;99.90
7155;DHT22;3619;53.784;10.440;2022-09-09T16:56:55;18.70;99.90
7155;DHT22;3619;53.784;10.440;2022-09-09T16:59:23;18.80;99.90
7155;DHT22;3619;53.784;10.440;2022-09-09T17:01:53;18.80;99.90
7155;DHT22;3619;53.784;10.440;2022-09-09T17:04:22;18.80;99.90
7155;DHT22;3619;53.784;10.440;2022-09-09T17:06:51;18.90;99.90
7155;DHT22;3619;53.784;10.440;2022-09-09T17:09:19;18.80;99.90
7155;DHT22;3619;53.784;10.440;2022-09-09T17:11:49;18.70;99.90
7155;DHT22;3619;53.784;10.440;2022-09-09T17:14:19;18.70;99.90
7155;DHT22;3619;53.784;10.440;2022-09-09T17:16:46;18.60;99.90
7155;DHT22;3619;53.784;10.440;2022-09-09T17:19:14;18.40;99.90
7155;DHT22;3619;53.784;10.440;2022-09-09T17:21:41;18.30;99.90
7155;DHT22;3619;53.784;10.440;2022-09-09T17:24:08;17.90;99.90
7155;DHT22;3619;53.784;10.440;2022-09-09T17:26:35;17.80;99.90
7155;DHT22;3619;53.784;10.440;2022-09-09T17:29:04;17.80;99.90
7155;DHT22;3619;53.784;10.440;2022-09-09T17:31:31;17.80;99.90
7155;DHT22;3619;53.784;10.440;2022-09-09T17:34:00;17.80;99.90
7155;DHT22;3619;53.784;10.440;2022-09-09T17:36:29;17.70;99.90
7155;DHT22;3619;53.784;10.440;2022-09-09T17:38:57;17.80;99.90
7155;DHT22;3619;53.784;10.440;2022-09-09T17:41:27;17.80;99.90
7155;DHT22;3619;53.784;10.440;2022-09-09T17:43:54;17.70;99.90
7155;DHT22;3619;53.784;10.440;2022-09-09T17:46:27;17.70;99.90
7155;DHT22;3619;53.784;10.440;2022-09-09T17:48:56;17.70;99.90
7155;DHT22;3619;53.784;10.440;2022-09-09T17:51:25;17.60;99.90
7155;DHT22;3619;53.784;10.440;2022-09-09T17:53:54;17.50;99.90
7155;DHT22;3619;53.784;10.440;2022-09-09T17:56:25;17.30;99.90
7155;DHT22;3619;53.784;10.440;2022-09-09T17:58:57;17.20;99.90
7155;DHT22;3619;53.784;10.440;2022-09-09T18:01:28;17.10;99.90
7155;DHT22;3619;53.784;10.440;2022-09-09T18:03:58;17.00;99.90
7155;DHT22;3619;53.784;10.440;2022-09-09T18:06:28;16.90;99.90
7155;DHT22;3619;53.784;10.440;2022-09-09T18:08:57;16.80;99.90